RYR9BG EPKK-LIPY
Flight info
| Callsign | RYR9BG |
|---|---|
| Flight time | 1h 22m |
| Altitude | 32000 |
| Route | BABKO DCT VADEX DCT ZOLKU DCT OLATI/N0438F360 DCT KOPRY DCT TORPO M730 KEGED |
| Aircraft | B738/M-SADE3FGIJ1LRWY/SB1 |
Departure
| Time | 2026-04-22 18:29 |
|---|---|
| Airport | Kraków John Paul II International Airport (EPKK) |
Arrival
| Time | 2026-04-22 19:51 |
|---|---|
| Airport | Marche Airport (LIPY) |
| Time | Latitude | Longitude | Altitude | Speed | Heading |
|---|---|---|---|---|---|
| 2026-04-22 17:47 | 50.07596 | 19.80231 | 790 ft | 0 kts | 348° |
| 2026-04-22 18:22 | 50.07600 | 19.80229 | 790 ft | 3 kts | 348° |
| 2026-04-22 18:22 | 50.07642 | 19.80240 | 790 ft | 11 kts | 49° |
| 2026-04-22 18:22 | 50.07674 | 19.80373 | 790 ft | 14 kts | 40° |
| 2026-04-22 18:22 | 50.07768 | 19.80362 | 790 ft | 14 kts | 347° |
| 2026-04-22 18:23 | 50.07838 | 19.80338 | 790 ft | 4 kts | 348° |
| 2026-04-22 18:23 | 50.07839 | 19.80338 | 790 ft | 0 kts | 348° |
| 2026-04-22 18:28 | 50.07847 | 19.80335 | 790 ft | 4 kts | 348° |
| 2026-04-22 18:28 | 50.07904 | 19.80316 | 789 ft | 10 kts | 348° |
| 2026-04-22 18:28 | 50.07980 | 19.80289 | 789 ft | 13 kts | 346° |
| 2026-04-22 18:28 | 50.08011 | 19.80175 | 789 ft | 14 kts | 258° |
| 2026-04-22 18:29 | 50.07973 | 19.79904 | 788 ft | 55 kts | 258° |
| 2026-04-22 18:29 | 50.07841 | 19.78955 | 791 ft | 122 kts | 257° |
| 2026-04-22 18:29 | 50.07628 | 19.77448 | 998 ft | 154 kts | 258° |
| 2026-04-22 18:29 | 50.07386 | 19.75807 | 1736 ft | 158 kts | 261° |
| 2026-04-22 18:30 | 50.07121 | 19.74097 | 2506 ft | 156 kts | 261° |
| 2026-04-22 18:30 | 50.06618 | 19.70797 | 3684 ft | 176 kts | 264° |
| 2026-04-22 18:30 | 50.06354 | 19.68879 | 4205 ft | 192 kts | 261° |
| 2026-04-22 18:31 | 50.05639 | 19.66998 | 4535 ft | 220 kts | 224° |
| 2026-04-22 18:31 | 50.04166 | 19.65989 | 4821 ft | 243 kts | 198° |
| 2026-04-22 18:31 | 50.02447 | 19.65303 | 5056 ft | 267 kts | 195° |
| 2026-04-22 18:31 | 50.00583 | 19.64598 | 5498 ft | 282 kts | 196° |
| 2026-04-22 18:32 | 49.98654 | 19.63842 | 5733 ft | 286 kts | 197° |
| 2026-04-22 18:32 | 49.96736 | 19.63051 | 5996 ft | 284 kts | 197° |
| 2026-04-22 18:32 | 49.94831 | 19.62233 | 6610 ft | 286 kts | 198° |
| 2026-04-22 18:32 | 49.92911 | 19.61386 | 7406 ft | 287 kts | 198° |
| 2026-04-22 18:33 | 49.90987 | 19.60523 | 8155 ft | 290 kts | 198° |
| 2026-04-22 18:33 | 49.89059 | 19.59648 | 8852 ft | 294 kts | 198° |
| 2026-04-22 18:33 | 49.87075 | 19.58743 | 9558 ft | 299 kts | 198° |
| 2026-04-22 18:33 | 49.85063 | 19.57822 | 10274 ft | 303 kts | 197° |
| 2026-04-22 18:34 | 49.83011 | 19.56880 | 10576 ft | 321 kts | 197° |
| 2026-04-22 18:34 | 49.80797 | 19.55864 | 10827 ft | 340 kts | 197° |
| 2026-04-22 18:34 | 49.78499 | 19.54810 | 11379 ft | 347 kts | 197° |
| 2026-04-22 18:34 | 49.76174 | 19.53744 | 12069 ft | 350 kts | 197° |
| 2026-04-22 18:35 | 49.73824 | 19.52668 | 12743 ft | 354 kts | 196° |
| 2026-04-22 18:35 | 49.71440 | 19.51576 | 13471 ft | 358 kts | 196° |
| 2026-04-22 18:35 | 49.69035 | 19.50476 | 14178 ft | 362 kts | 196° |
| 2026-04-22 18:35 | 49.66632 | 19.49379 | 14805 ft | 367 kts | 195° |
| 2026-04-22 18:36 | 49.64170 | 19.48255 | 15460 ft | 371 kts | 197° |
| 2026-04-22 18:36 | 49.61779 | 19.46692 | 16079 ft | 376 kts | 208° |
| 2026-04-22 18:36 | 49.59480 | 19.44718 | 16734 ft | 380 kts | 207° |
| 2026-04-22 18:36 | 49.57110 | 19.42824 | 17374 ft | 385 kts | 206° |
| 2026-04-22 18:37 | 49.54703 | 19.40953 | 17982 ft | 390 kts | 206° |
| 2026-04-22 18:37 | 49.52264 | 19.39062 | 18590 ft | 395 kts | 206° |
| 2026-04-22 18:37 | 49.50634 | 19.37792 | 18950 ft | 398 kts | 206° |
| 2026-04-22 18:37 | 49.47314 | 19.35185 | 19703 ft | 402 kts | 205° |
| 2026-04-22 18:38 | 49.44810 | 19.33211 | 20257 ft | 406 kts | 205° |
| 2026-04-22 18:38 | 49.42286 | 19.31217 | 20797 ft | 409 kts | 205° |
| 2026-04-22 18:38 | 49.39771 | 19.29230 | 21325 ft | 413 kts | 205° |
| 2026-04-22 18:39 | 49.34606 | 19.25150 | 22388 ft | 420 kts | 204° |
| 2026-04-22 18:39 | 49.31994 | 19.23090 | 22892 ft | 423 kts | 204° |
| 2026-04-22 18:39 | 49.29360 | 19.21017 | 23383 ft | 426 kts | 204° |
| 2026-04-22 18:39 | 49.26711 | 19.18934 | 23860 ft | 429 kts | 204° |
| 2026-04-22 18:40 | 49.24082 | 19.16869 | 24156 ft | 430 kts | 204° |
| 2026-04-22 18:40 | 49.21401 | 19.14766 | 24190 ft | 435 kts | 204° |
| 2026-04-22 18:40 | 49.18705 | 19.12652 | 24182 ft | 432 kts | 204° |
| 2026-04-22 18:40 | 49.16020 | 19.10550 | 24232 ft | 436 kts | 204° |
| 2026-04-22 18:41 | 49.13299 | 19.08431 | 24589 ft | 438 kts | 203° |
| 2026-04-22 18:41 | 49.10578 | 19.06312 | 25095 ft | 438 kts | 203° |
| 2026-04-22 18:41 | 49.07889 | 19.04217 | 25545 ft | 440 kts | 203° |
| 2026-04-22 18:41 | 49.05154 | 19.02089 | 25933 ft | 442 kts | 202° |
| 2026-04-22 18:42 | 49.02392 | 18.99943 | 26251 ft | 446 kts | 202° |
| 2026-04-22 18:42 | 48.99604 | 18.97780 | 26595 ft | 449 kts | 202° |
| 2026-04-22 18:42 | 48.96809 | 18.95613 | 26960 ft | 452 kts | 202° |
| 2026-04-22 18:42 | 48.94001 | 18.93438 | 27327 ft | 454 kts | 202° |
| 2026-04-22 18:43 | 48.91218 | 18.91286 | 27694 ft | 456 kts | 201° |
| 2026-04-22 18:43 | 48.88382 | 18.89095 | 28019 ft | 459 kts | 201° |
| 2026-04-22 18:43 | 48.85525 | 18.86891 | 28330 ft | 462 kts | 201° |
| 2026-04-22 18:43 | 48.82652 | 18.84678 | 28656 ft | 464 kts | 201° |
| 2026-04-22 18:44 | 48.79764 | 18.82455 | 28994 ft | 466 kts | 201° |
| 2026-04-22 18:44 | 48.76862 | 18.80225 | 29306 ft | 468 kts | 200° |
| 2026-04-22 18:44 | 48.73941 | 18.77983 | 29596 ft | 471 kts | 200° |
| 2026-04-22 18:44 | 48.71009 | 18.75736 | 29865 ft | 473 kts | 200° |
| 2026-04-22 18:45 | 48.68092 | 18.73503 | 30134 ft | 475 kts | 200° |
| 2026-04-22 18:45 | 48.65136 | 18.71243 | 30385 ft | 477 kts | 200° |
| 2026-04-22 18:45 | 48.62165 | 18.68974 | 30646 ft | 479 kts | 200° |
| 2026-04-22 18:45 | 48.59179 | 18.66695 | 30928 ft | 480 kts | 200° |
| 2026-04-22 18:46 | 48.56202 | 18.64426 | 31268 ft | 478 kts | 201° |
| 2026-04-22 18:46 | 48.53231 | 18.62164 | 31637 ft | 476 kts | 201° |
| 2026-04-22 18:46 | 48.50275 | 18.59916 | 31980 ft | 475 kts | 201° |
| 2026-04-22 18:46 | 48.47319 | 18.57673 | 32184 ft | 475 kts | 201° |
| 2026-04-22 18:47 | 48.41411 | 18.53203 | 32170 ft | 476 kts | 201° |
| 2026-04-22 18:47 | 48.35490 | 18.48733 | 32160 ft | 473 kts | 201° |
| 2026-04-22 18:48 | 48.29646 | 18.44330 | 32158 ft | 471 kts | 201° |
| 2026-04-22 18:48 | 48.23784 | 18.39928 | 32160 ft | 470 kts | 201° |
| 2026-04-22 18:49 | 48.17953 | 18.35561 | 32158 ft | 470 kts | 201° |
| 2026-04-22 18:49 | 48.12092 | 18.31183 | 32168 ft | 471 kts | 202° |
| 2026-04-22 18:50 | 48.06165 | 18.26768 | 32535 ft | 475 kts | 202° |
| 2026-04-22 18:50 | 48.03217 | 18.24574 | 32935 ft | 471 kts | 202° |
| 2026-04-22 18:50 | 48.00326 | 18.22424 | 33310 ft | 469 kts | 203° |
| 2026-04-22 18:51 | 47.97406 | 18.20256 | 33591 ft | 468 kts | 203° |
| 2026-04-22 18:51 | 47.94475 | 18.18084 | 33821 ft | 469 kts | 204° |
| 2026-04-22 18:51 | 47.91554 | 18.15923 | 34084 ft | 468 kts | 204° |
| 2026-04-22 18:51 | 47.88630 | 18.13762 | 34352 ft | 466 kts | 204° |
| 2026-04-22 18:52 | 47.85756 | 18.11641 | 34583 ft | 465 kts | 204° |
| 2026-04-22 18:52 | 47.82851 | 18.09499 | 34766 ft | 466 kts | 204° |
| 2026-04-22 18:52 | 47.79930 | 18.07348 | 34946 ft | 466 kts | 204° |
| 2026-04-22 18:52 | 47.77060 | 18.05238 | 35145 ft | 465 kts | 205° |
| 2026-04-22 18:53 | 47.74150 | 18.03100 | 35357 ft | 465 kts | 205° |
| 2026-04-22 18:53 | 47.71242 | 18.00966 | 35554 ft | 464 kts | 205° |
| 2026-04-22 18:53 | 47.68346 | 17.98844 | 35731 ft | 464 kts | 205° |
| 2026-04-22 18:53 | 47.65444 | 17.96720 | 35898 ft | 464 kts | 205° |
| 2026-04-22 18:54 | 47.62571 | 17.94620 | 36073 ft | 464 kts | 205° |
| 2026-04-22 18:54 | 47.59672 | 17.92503 | 36187 ft | 464 kts | 205° |
| 2026-04-22 18:54 | 47.53849 | 17.88259 | 36183 ft | 465 kts | 205° |
| 2026-04-22 18:55 | 47.48096 | 17.84079 | 36178 ft | 462 kts | 205° |
| 2026-04-22 18:55 | 47.42334 | 17.79904 | 36175 ft | 459 kts | 205° |
| 2026-04-22 18:56 | 47.36579 | 17.75743 | 36180 ft | 458 kts | 205° |
| 2026-04-22 18:56 | 47.30883 | 17.71633 | 36184 ft | 457 kts | 206° |
| 2026-04-22 18:57 | 47.25152 | 17.67508 | 36189 ft | 457 kts | 206° |
| 2026-04-22 18:57 | 47.20388 | 17.64086 | 36181 ft | 458 kts | 206° |
| 2026-04-22 18:58 | 47.13705 | 17.59298 | 36180 ft | 459 kts | 206° |
| 2026-04-22 18:58 | 47.08907 | 17.55868 | 36182 ft | 460 kts | 206° |
| 2026-04-22 18:59 | 47.03125 | 17.51743 | 36176 ft | 462 kts | 206° |
| 2026-04-22 18:59 | 46.97358 | 17.47640 | 36182 ft | 463 kts | 206° |
| 2026-04-22 19:00 | 46.91530 | 17.43507 | 36178 ft | 464 kts | 206° |
| 2026-04-22 19:00 | 46.85751 | 17.39418 | 36181 ft | 464 kts | 206° |
| 2026-04-22 19:01 | 46.79919 | 17.35300 | 36181 ft | 464 kts | 206° |
| 2026-04-22 19:01 | 46.74128 | 17.31220 | 36184 ft | 464 kts | 206° |
| 2026-04-22 19:02 | 46.68306 | 17.27127 | 36191 ft | 463 kts | 206° |
| 2026-04-22 19:02 | 46.62487 | 17.23048 | 36179 ft | 463 kts | 206° |
| 2026-04-22 19:03 | 46.56722 | 17.19015 | 36186 ft | 462 kts | 206° |
| 2026-04-22 19:03 | 46.50915 | 17.14963 | 36186 ft | 461 kts | 206° |
| 2026-04-22 19:04 | 46.45133 | 17.10937 | 36184 ft | 460 kts | 206° |
| 2026-04-22 19:04 | 46.39397 | 17.06953 | 36188 ft | 459 kts | 207° |
| 2026-04-22 19:05 | 46.33630 | 17.02955 | 36187 ft | 459 kts | 207° |
| 2026-04-22 19:05 | 46.27896 | 16.98989 | 36188 ft | 458 kts | 207° |
| 2026-04-22 19:06 | 46.22239 | 16.94759 | 36185 ft | 456 kts | 215° |
| 2026-04-22 19:07 | 46.14453 | 16.86881 | 36196 ft | 455 kts | 217° |
| 2026-04-22 19:07 | 46.09304 | 16.81630 | 36197 ft | 455 kts | 217° |
| 2026-04-22 19:08 | 46.04089 | 16.76392 | 36198 ft | 456 kts | 217° |
| 2026-04-22 19:08 | 45.98890 | 16.71218 | 36201 ft | 456 kts | 217° |
| 2026-04-22 19:09 | 45.93656 | 16.66028 | 36197 ft | 456 kts | 217° |
| 2026-04-22 19:09 | 45.88458 | 16.60886 | 36199 ft | 456 kts | 217° |
| 2026-04-22 19:10 | 45.83209 | 16.55702 | 36195 ft | 457 kts | 217° |
| 2026-04-22 19:10 | 45.78429 | 16.50992 | 36205 ft | 456 kts | 217° |
| 2026-04-22 19:11 | 45.73183 | 16.45833 | 36205 ft | 456 kts | 217° |
| 2026-04-22 19:11 | 45.67943 | 16.40692 | 36209 ft | 456 kts | 217° |
| 2026-04-22 19:12 | 45.62709 | 16.35570 | 36209 ft | 455 kts | 217° |
| 2026-04-22 19:12 | 45.57476 | 16.30460 | 36206 ft | 455 kts | 217° |
| 2026-04-22 19:13 | 45.52277 | 16.25395 | 36209 ft | 454 kts | 217° |
| 2026-04-22 19:13 | 45.47077 | 16.20340 | 36212 ft | 453 kts | 217° |
| 2026-04-22 19:14 | 45.41868 | 16.15289 | 36213 ft | 452 kts | 217° |
| 2026-04-22 19:14 | 45.36653 | 16.10243 | 36213 ft | 451 kts | 217° |
| 2026-04-22 19:15 | 45.32358 | 16.06096 | 36215 ft | 451 kts | 217° |
| 2026-04-22 19:15 | 45.26277 | 16.00237 | 36222 ft | 451 kts | 217° |
| 2026-04-22 19:16 | 45.21110 | 15.95270 | 36224 ft | 450 kts | 217° |
| 2026-04-22 19:16 | 45.15905 | 15.90278 | 36218 ft | 450 kts | 217° |
| 2026-04-22 19:17 | 45.10744 | 15.85341 | 36231 ft | 450 kts | 218° |
| 2026-04-22 19:17 | 45.05550 | 15.80382 | 36231 ft | 450 kts | 218° |
| 2026-04-22 19:18 | 45.00344 | 15.75423 | 36228 ft | 450 kts | 218° |
| 2026-04-22 19:18 | 44.95176 | 15.70511 | 36227 ft | 450 kts | 218° |
| 2026-04-22 19:19 | 44.89978 | 15.65581 | 36228 ft | 449 kts | 218° |
| 2026-04-22 19:19 | 44.84776 | 15.60659 | 36226 ft | 449 kts | 218° |
| 2026-04-22 19:19 | 44.82178 | 15.58205 | 36098 ft | 451 kts | 218° |
| 2026-04-22 19:20 | 44.79610 | 15.55781 | 35823 ft | 447 kts | 218° |
| 2026-04-22 19:20 | 44.77046 | 15.53369 | 35575 ft | 440 kts | 218° |
| 2026-04-22 19:20 | 44.74513 | 15.50988 | 35316 ft | 433 kts | 218° |
| 2026-04-22 19:20 | 44.72015 | 15.48639 | 35088 ft | 431 kts | 218° |
| 2026-04-22 19:21 | 44.69519 | 15.46293 | 34849 ft | 429 kts | 218° |
| 2026-04-22 19:21 | 44.67063 | 15.43986 | 34621 ft | 428 kts | 219° |
| 2026-04-22 19:21 | 44.64590 | 15.41667 | 34387 ft | 426 kts | 219° |
| 2026-04-22 19:21 | 44.62122 | 15.39354 | 34140 ft | 425 kts | 219° |
| 2026-04-22 19:22 | 44.59661 | 15.37050 | 33860 ft | 423 kts | 219° |
| 2026-04-22 19:22 | 44.57210 | 15.34759 | 33587 ft | 422 kts | 219° |
| 2026-04-22 19:22 | 44.54802 | 15.32511 | 33271 ft | 417 kts | 219° |
| 2026-04-22 19:22 | 44.52410 | 15.30283 | 32930 ft | 409 kts | 219° |
| 2026-04-22 19:23 | 44.50042 | 15.28080 | 32534 ft | 404 kts | 219° |
| 2026-04-22 19:23 | 44.47713 | 15.25913 | 32162 ft | 399 kts | 219° |
| 2026-04-22 19:23 | 44.45431 | 15.23791 | 31790 ft | 394 kts | 220° |
| 2026-04-22 19:23 | 44.43157 | 15.21679 | 31420 ft | 389 kts | 220° |
| 2026-04-22 19:24 | 44.40918 | 15.19601 | 31071 ft | 384 kts | 220° |
| 2026-04-22 19:24 | 44.38703 | 15.17547 | 30719 ft | 380 kts | 220° |
| 2026-04-22 19:24 | 44.36507 | 15.15511 | 30372 ft | 375 kts | 220° |
| 2026-04-22 19:24 | 44.34336 | 15.13501 | 29987 ft | 372 kts | 221° |
| 2026-04-22 19:25 | 44.32198 | 15.11518 | 29617 ft | 376 kts | 220° |
| 2026-04-22 19:25 | 44.29982 | 15.09457 | 29265 ft | 389 kts | 220° |
| 2026-04-22 19:25 | 44.27705 | 15.07345 | 28851 ft | 390 kts | 220° |
| 2026-04-22 19:25 | 44.25454 | 15.05272 | 28476 ft | 384 kts | 220° |
| 2026-04-22 19:26 | 44.23236 | 15.03235 | 28096 ft | 378 kts | 220° |
| 2026-04-22 19:26 | 44.21053 | 15.01233 | 27733 ft | 373 kts | 220° |
| 2026-04-22 19:26 | 44.18897 | 14.99253 | 27386 ft | 367 kts | 220° |
| 2026-04-22 19:26 | 44.16871 | 14.97219 | 26804 ft | 362 kts | 229° |
| 2026-04-22 19:27 | 44.15163 | 14.94640 | 26032 ft | 363 kts | 238° |
| 2026-04-22 19:27 | 44.13659 | 14.91821 | 25479 ft | 362 kts | 241° |
| 2026-04-22 19:27 | 44.12232 | 14.88942 | 25057 ft | 358 kts | 242° |
| 2026-04-22 19:27 | 44.10834 | 14.86079 | 24656 ft | 355 kts | 242° |
| 2026-04-22 19:28 | 44.09438 | 14.83236 | 24222 ft | 354 kts | 241° |
| 2026-04-22 19:28 | 44.08040 | 14.80417 | 23769 ft | 354 kts | 241° |
| 2026-04-22 19:28 | 44.06653 | 14.77650 | 23269 ft | 352 kts | 240° |
| 2026-04-22 19:28 | 44.05246 | 14.74864 | 22812 ft | 350 kts | 240° |
| 2026-04-22 19:29 | 44.03846 | 14.72105 | 22362 ft | 347 kts | 240° |
| 2026-04-22 19:29 | 44.02453 | 14.69368 | 21910 ft | 345 kts | 240° |
| 2026-04-22 19:29 | 44.01068 | 14.66651 | 21462 ft | 343 kts | 240° |
| 2026-04-22 19:29 | 43.99706 | 14.63984 | 21014 ft | 341 kts | 240° |
| 2026-04-22 19:30 | 43.98776 | 14.62163 | 20701 ft | 341 kts | 240° |
| 2026-04-22 19:30 | 43.96972 | 14.58637 | 20230 ft | 336 kts | 240° |
| 2026-04-22 19:30 | 43.95621 | 14.56001 | 19877 ft | 332 kts | 240° |
| 2026-04-22 19:30 | 43.94291 | 14.53407 | 19554 ft | 328 kts | 239° |
| 2026-04-22 19:31 | 43.92990 | 14.50871 | 19231 ft | 324 kts | 239° |
| 2026-04-22 19:31 | 43.91685 | 14.48330 | 18916 ft | 320 kts | 239° |
| 2026-04-22 19:31 | 43.90398 | 14.45824 | 18582 ft | 317 kts | 239° |
| 2026-04-22 19:31 | 43.89126 | 14.43350 | 18255 ft | 313 kts | 239° |
| 2026-04-22 19:32 | 43.87866 | 14.40902 | 17916 ft | 310 kts | 239° |
| 2026-04-22 19:32 | 43.86614 | 14.38471 | 17612 ft | 309 kts | 239° |
| 2026-04-22 19:32 | 43.85368 | 14.36051 | 17310 ft | 309 kts | 239° |
| 2026-04-22 19:32 | 43.84123 | 14.33634 | 17020 ft | 317 kts | 239° |
| 2026-04-22 19:33 | 43.82819 | 14.31102 | 16703 ft | 324 kts | 239° |
| 2026-04-22 19:33 | 43.81510 | 14.28571 | 16363 ft | 321 kts | 238° |
| 2026-04-22 19:33 | 43.80211 | 14.26064 | 16041 ft | 317 kts | 238° |
| 2026-04-22 19:33 | 43.78934 | 14.23600 | 15724 ft | 313 kts | 238° |
| 2026-04-22 19:34 | 43.77687 | 14.21197 | 15415 ft | 308 kts | 238° |
| 2026-04-22 19:34 | 43.76436 | 14.18811 | 15180 ft | 302 kts | 238° |
| 2026-04-22 19:34 | 43.75202 | 14.16470 | 14877 ft | 299 kts | 238° |
| 2026-04-22 19:34 | 43.73983 | 14.14161 | 14583 ft | 295 kts | 238° |
| 2026-04-22 19:35 | 43.72774 | 14.11868 | 14298 ft | 295 kts | 238° |
| 2026-04-22 19:35 | 43.71576 | 14.09595 | 14018 ft | 297 kts | 238° |
| 2026-04-22 19:35 | 43.70743 | 14.08016 | 13802 ft | 302 kts | 237° |
| 2026-04-22 19:35 | 43.69081 | 14.04869 | 13361 ft | 308 kts | 237° |
| 2026-04-22 19:36 | 43.67815 | 14.02477 | 13019 ft | 306 kts | 237° |
| 2026-04-22 19:36 | 43.66567 | 14.00124 | 12699 ft | 301 kts | 237° |
| 2026-04-22 19:36 | 43.65350 | 13.97831 | 12393 ft | 298 kts | 237° |
| 2026-04-22 19:36 | 43.64131 | 13.95532 | 12058 ft | 295 kts | 237° |
| 2026-04-22 19:37 | 43.62912 | 13.93234 | 11642 ft | 295 kts | 237° |
| 2026-04-22 19:37 | 43.61702 | 13.90953 | 11329 ft | 292 kts | 237° |
| 2026-04-22 19:37 | 43.60503 | 13.88696 | 11020 ft | 290 kts | 237° |
| 2026-04-22 19:37 | 43.59318 | 13.86470 | 10727 ft | 287 kts | 237° |
| 2026-04-22 19:38 | 43.58144 | 13.84265 | 10434 ft | 283 kts | 237° |
| 2026-04-22 19:38 | 43.56949 | 13.82151 | 10154 ft | 282 kts | 233° |
| 2026-04-22 19:38 | 43.55692 | 13.80114 | 10029 ft | 277 kts | 232° |
| 2026-04-22 19:38 | 43.54423 | 13.78086 | 9738 ft | 281 kts | 232° |
| 2026-04-22 19:39 | 43.53128 | 13.76012 | 9466 ft | 288 kts | 232° |
| 2026-04-22 19:39 | 43.51816 | 13.73903 | 9167 ft | 290 kts | 232° |
| 2026-04-22 19:39 | 43.50514 | 13.71806 | 8866 ft | 286 kts | 231° |
| 2026-04-22 19:39 | 43.49232 | 13.69738 | 8574 ft | 282 kts | 231° |
| 2026-04-22 19:40 | 43.47986 | 13.67724 | 8296 ft | 278 kts | 231° |
| 2026-04-22 19:40 | 43.46739 | 13.65707 | 8016 ft | 274 kts | 231° |
| 2026-04-22 19:40 | 43.45507 | 13.63717 | 7746 ft | 270 kts | 231° |
| 2026-04-22 19:40 | 43.44299 | 13.61768 | 7589 ft | 262 kts | 231° |
| 2026-04-22 19:41 | 43.43132 | 13.59886 | 7469 ft | 255 kts | 231° |
| 2026-04-22 19:41 | 43.42114 | 13.57912 | 7226 ft | 258 kts | 242° |
| 2026-04-22 19:41 | 43.41227 | 13.55728 | 6986 ft | 263 kts | 244° |
| 2026-04-22 19:41 | 43.40341 | 13.53496 | 6728 ft | 267 kts | 243° |
| 2026-04-22 19:42 | 43.39443 | 13.51291 | 6555 ft | 259 kts | 243° |
| 2026-04-22 19:42 | 43.38564 | 13.49176 | 6415 ft | 250 kts | 242° |
| 2026-04-22 19:42 | 43.37711 | 13.47138 | 6284 ft | 241 kts | 242° |
| 2026-04-22 19:42 | 43.36892 | 13.45190 | 6220 ft | 228 kts | 242° |
| 2026-04-22 19:43 | 43.36248 | 13.41376 | 5892 ft | 201 kts | 296° |
| 2026-04-22 19:43 | 43.36917 | 13.39776 | 5712 ft | 187 kts | 316° |
| 2026-04-22 19:43 | 43.37790 | 13.38524 | 5517 ft | 176 kts | 321° |
| 2026-04-22 19:44 | 43.38655 | 13.37363 | 5306 ft | 172 kts | 321° |
| 2026-04-22 19:44 | 43.39503 | 13.36220 | 5128 ft | 170 kts | 321° |
| 2026-04-22 19:44 | 43.40347 | 13.35081 | 4964 ft | 170 kts | 321° |
| 2026-04-22 19:44 | 43.41175 | 13.33926 | 4757 ft | 169 kts | 320° |
| 2026-04-22 19:45 | 43.41998 | 13.32773 | 4595 ft | 169 kts | 320° |
| 2026-04-22 19:45 | 43.42818 | 13.31620 | 4417 ft | 169 kts | 320° |
| 2026-04-22 19:45 | 43.43638 | 13.30467 | 4244 ft | 169 kts | 320° |
| 2026-04-22 19:45 | 43.44463 | 13.29305 | 4071 ft | 170 kts | 320° |
| 2026-04-22 19:46 | 43.45014 | 13.28527 | 3940 ft | 172 kts | 320° |
| 2026-04-22 19:46 | 43.45850 | 13.27349 | 3750 ft | 172 kts | 320° |
| 2026-04-22 19:46 | 43.46942 | 13.25806 | 3490 ft | 168 kts | 320° |
| 2026-04-22 19:46 | 43.47758 | 13.24651 | 3306 ft | 168 kts | 320° |
| 2026-04-22 19:47 | 43.48310 | 13.23871 | 3197 ft | 169 kts | 319° |
| 2026-04-22 19:47 | 43.49120 | 13.22726 | 3018 ft | 170 kts | 319° |
| 2026-04-22 19:47 | 43.50048 | 13.21804 | 2782 ft | 161 kts | 351° |
| 2026-04-22 19:47 | 43.51090 | 13.22019 | 2652 ft | 152 kts | 28° |
| 2026-04-22 19:48 | 43.51904 | 13.22982 | 2510 ft | 157 kts | 44° |
| 2026-04-22 19:48 | 43.52692 | 13.24053 | 2282 ft | 160 kts | 43° |
| 2026-04-22 19:48 | 43.53483 | 13.25121 | 2063 ft | 158 kts | 43° |
| 2026-04-22 19:48 | 43.54263 | 13.26168 | 1834 ft | 155 kts | 43° |
| 2026-04-22 19:49 | 43.55019 | 13.27189 | 1652 ft | 147 kts | 43° |
| 2026-04-22 19:49 | 43.55739 | 13.28166 | 1452 ft | 144 kts | 43° |
| 2026-04-22 19:49 | 43.56432 | 13.29111 | 1312 ft | 134 kts | 43° |
| 2026-04-22 19:49 | 43.57080 | 13.29996 | 1115 ft | 130 kts | 43° |
| 2026-04-22 19:50 | 43.57722 | 13.30869 | 938 ft | 128 kts | 43° |
| 2026-04-22 19:50 | 43.58345 | 13.31727 | 815 ft | 127 kts | 45° |
| 2026-04-22 19:50 | 43.58963 | 13.32590 | 663 ft | 128 kts | 43° |
| 2026-04-22 19:50 | 43.59602 | 13.33454 | 461 ft | 129 kts | 44° |
| 2026-04-22 19:51 | 43.60241 | 13.34332 | 263 ft | 130 kts | 44° |
| 2026-04-22 19:51 | 43.60884 | 13.35200 | 87 ft | 127 kts | 44° |
| 2026-04-22 19:51 | 43.61447 | 13.35970 | 55 ft | 97 kts | 46° |
| 2026-04-22 19:51 | 43.61775 | 13.36427 | 54 ft | 27 kts | 53° |
| 2026-04-22 19:52 | 43.61837 | 13.36480 | 56 ft | 8 kts | 281° |
| 2026-04-22 19:52 | 43.61781 | 13.36428 | 53 ft | 15 kts | 210° |
| 2026-04-22 19:52 | 43.61676 | 13.36282 | 54 ft | 28 kts | 225° |
| 2026-04-22 19:52 | 43.61524 | 13.36073 | 55 ft | 32 kts | 225° |
| 2026-04-22 19:53 | 43.61365 | 13.35867 | 52 ft | 30 kts | 223° |
| 2026-04-22 19:53 | 43.61221 | 13.35667 | 56 ft | 28 kts | 225° |
| 2026-04-22 19:53 | 43.61083 | 13.35565 | 56 ft | 20 kts | 186° |
| 2026-04-22 19:53 | 43.60948 | 13.35559 | 56 ft | 19 kts | 180° |
| 2026-04-22 19:54 | 43.60840 | 13.35468 | 53 ft | 16 kts | 225° |
| 2026-04-22 19:54 | 43.60783 | 13.35411 | 55 ft | 8 kts | 177° |
| 2026-04-22 19:54 | 43.60756 | 13.35445 | 55 ft | 3 kts | 142° |
| 2026-04-22 19:54 | 43.60741 | 13.35451 | 55 ft | 1 kts | 166° |
| 2026-04-22 19:55 | 43.60740 | 13.35451 | 55 ft | 0 kts | 166° |